createdAt,value
2022-08-17T00:01:24.146Z,24.00
2022-08-17T00:06:57.362Z,24.07
2022-08-17T00:12:42.620Z,24.08
2022-08-17T00:19:06.162Z,24.09
2022-08-17T00:24:04.846Z,24.07
2022-08-17T00:29:34.086Z,24.06
2022-08-17T00:35:05.840Z,23.95
2022-08-17T00:40:40.059Z,23.54
2022-08-17T00:46:15.719Z,23.29
2022-08-17T00:51:48.926Z,23.08
2022-08-17T00:57:22.715Z,23.26
2022-08-17T01:02:52.138Z,23.34
2022-08-17T01:08:24.728Z,23.09
2022-08-17T01:13:55.359Z,23.20
2022-08-17T01:19:26.999Z,23.29
2022-08-17T01:25:01.796Z,23.34
2022-08-17T01:30:57.420Z,23.34
2022-08-17T01:36:19.938Z,23.08
2022-08-17T01:41:52.981Z,23.16
2022-08-17T01:47:21.783Z,23.25
2022-08-17T01:52:52.530Z,23.27
2022-08-17T01:58:22.832Z,22.99
2022-08-17T02:03:54.541Z,23.05
2022-08-17T02:09:29.776Z,23.08
2022-08-17T02:15:00.200Z,23.09
2022-08-17T02:20:41.230Z,23.12
2022-08-17T02:26:25.572Z,23.04
2022-08-17T02:31:58.614Z,23.05
2022-08-17T02:37:28.304Z,23.08
2022-08-17T02:42:56.782Z,23.09
2022-08-17T02:48:30.787Z,23.09
2022-08-17T02:54:38.814Z,23.09
2022-08-17T02:59:49.751Z,23.04
2022-08-17T03:05:22.109Z,23.01
2022-08-17T03:10:51.236Z,22.99
2022-08-17T03:16:19.610Z,23.01
2022-08-17T03:21:55.198Z,23.10
2022-08-17T03:27:23.815Z,23.23
2022-08-17T03:32:54.724Z,23.33
2022-08-17T03:38:25.192Z,23.41
2022-08-17T03:43:54.733Z,23.52
2022-08-17T03:49:40.618Z,23.44
2022-08-17T03:55:32.932Z,23.59
2022-08-17T04:01:05.114Z,23.77
2022-08-17T04:06:33.983Z,23.93
2022-08-17T04:12:04.915Z,24.05
2022-08-17T04:17:33.850Z,24.12
2022-08-17T04:23:03.301Z,24.32
2022-08-17T04:28:34.301Z,24.40
2022-08-17T04:34:02.888Z,24.59
2022-08-17T04:39:33.848Z,24.74
2022-08-17T04:45:05.368Z,24.80
2022-08-17T04:50:34.833Z,24.98
2022-08-17T04:56:03.932Z,25.09
2022-08-17T05:01:35.411Z,25.19
2022-08-17T05:07:04.733Z,25.28
2022-08-17T05:12:33.679Z,25.45
2022-08-17T05:18:04.741Z,25.63
2022-08-17T05:23:41.886Z,25.81
2022-08-17T05:29:11.713Z,25.92
2022-08-17T05:34:42.702Z,26.00
2022-08-17T05:40:11.934Z,26.12
2022-08-17T05:45:54.468Z,26.23
2022-08-17T05:51:42.403Z,26.43
2022-08-17T05:57:33.985Z,26.73
2022-08-17T06:03:13.333Z,26.94
2022-08-17T06:08:51.729Z,27.15
2022-08-17T06:14:30.677Z,27.46
2022-08-17T06:20:03.298Z,27.86
2022-08-17T06:25:36.103Z,28.70
2022-08-17T06:31:07.416Z,31.02
2022-08-17T06:36:43.614Z,33.10
2022-08-17T06:42:58.832Z,34.59
2022-08-17T06:48:13.943Z,36.17
2022-08-17T06:53:45.557Z,37.53
2022-08-17T06:59:17.600Z,38.13
2022-08-17T07:04:48.323Z,38.76
2022-08-17T07:10:17.414Z,39.29
2022-08-17T07:15:46.513Z,39.24
2022-08-17T07:21:26.563Z,39.67
2022-08-17T07:27:04.332Z,40.02
2022-08-17T07:32:35.984Z,40.26
2022-08-17T07:38:24.857Z,39.93
2022-08-17T07:43:54.686Z,40.29
2022-08-17T07:49:25.601Z,40.68
2022-08-17T07:54:56.212Z,40.40
2022-08-17T08:00:31.384Z,39.95
2022-08-17T08:06:02.320Z,40.03
2022-08-17T08:11:33.584Z,39.92
2022-08-17T08:17:03.566Z,40.14
2022-08-17T08:22:38.848Z,39.88
2022-08-17T08:28:15.108Z,38.12
2022-08-17T08:33:49.748Z,37.25
2022-08-17T08:39:22.531Z,37.87
2022-08-17T08:44:59.473Z,38.86
2022-08-17T08:50:40.431Z,39.42
2022-08-17T08:56:12.998Z,37.80
2022-08-17T09:01:49.283Z,36.81
2022-08-17T09:07:24.511Z,34.94
2022-08-17T09:12:59.242Z,33.33
2022-08-17T09:19:02.720Z,33.36
2022-08-17T09:24:24.953Z,34.69
2022-08-17T09:29:57.886Z,35.69
2022-08-17T09:35:32.954Z,35.94
2022-08-17T09:41:10.645Z,35.99
2022-08-17T09:46:42.244Z,36.19
2022-08-17T09:52:17.844Z,36.14
2022-08-17T09:57:52.388Z,35.35
2022-08-17T10:03:28.337Z,34.29
2022-08-17T10:09:07.374Z,33.61
2022-08-17T10:14:43.760Z,32.94
2022-08-17T10:20:16.653Z,32.80
2022-08-17T10:26:05.409Z,34.28
2022-08-17T10:31:39.811Z,35.54
2022-08-17T10:37:16.319Z,34.98
2022-08-17T10:42:48.976Z,34.22
2022-08-17T10:48:28.841Z,33.72
2022-08-17T10:54:01.843Z,33.38
2022-08-17T10:59:52.196Z,33.21
2022-08-17T11:05:23.818Z,33.41
2022-08-17T11:10:59.591Z,34.49
2022-08-17T11:16:37.701Z,34.55
2022-08-17T11:22:22.995Z,34.83
2022-08-17T11:27:53.813Z,34.51
2022-08-17T11:33:41.101Z,34.40
2022-08-17T11:39:22.326Z,34.72
2022-08-17T11:44:54.447Z,35.15
2022-08-17T11:50:45.515Z,35.08
2022-08-17T11:56:32.666Z,34.80
2022-08-17T12:02:03.036Z,33.92
2022-08-17T12:07:33.287Z,33.54
2022-08-17T12:13:06.956Z,33.34
2022-08-17T12:18:38.463Z,33.96
2022-08-17T12:24:13.708Z,34.60
2022-08-17T12:29:45.439Z,34.88
2022-08-17T12:35:20.525Z,35.13
2022-08-17T12:40:54.916Z,35.30
2022-08-17T12:46:28.407Z,34.88
2022-08-17T12:52:03.358Z,34.86
2022-08-17T12:57:33.654Z,34.92
2022-08-17T13:03:06.086Z,34.27
2022-08-17T13:08:36.156Z,33.98
2022-08-17T13:14:10.013Z,33.72
2022-08-17T13:19:49.273Z,33.50
2022-08-17T13:25:17.924Z,33.24
2022-08-17T13:30:47.785Z,32.28
2022-08-17T13:36:28.446Z,31.38
2022-08-17T13:41:57.958Z,30.82
2022-08-17T13:47:26.696Z,29.94
2022-08-17T13:52:58.513Z,30.12
2022-08-17T13:58:28.874Z,30.69
2022-08-17T14:03:58.033Z,30.58
2022-08-17T14:09:33.588Z,30.38
2022-08-17T14:15:05.735Z,30.34
2022-08-17T14:20:35.246Z,30.35
2022-08-17T14:26:05.319Z,30.49
2022-08-17T14:31:37.437Z,30.57
2022-08-17T14:37:06.623Z,30.71
2022-08-17T14:42:37.930Z,30.58
2022-08-17T14:48:07.965Z,30.49
2022-08-17T14:53:37.790Z,30.73
2022-08-17T14:59:07.823Z,30.71
2022-08-17T15:04:36.633Z,30.48
2022-08-17T15:10:05.769Z,30.10
2022-08-17T15:15:35.763Z,29.89
2022-08-17T15:21:04.982Z,29.77
2022-08-17T15:26:33.853Z,29.50
2022-08-17T15:32:04.006Z,29.29
2022-08-17T15:37:33.478Z,29.12
2022-08-17T15:43:05.144Z,28.95
2022-08-17T15:48:42.621Z,28.77
2022-08-17T15:54:17.251Z,28.68
2022-08-17T15:59:54.004Z,28.47
2022-08-17T16:05:31.150Z,28.22
2022-08-17T16:11:00.670Z,28.08
2022-08-17T16:16:31.260Z,28.00
2022-08-17T16:22:00.975Z,27.85
2022-08-17T16:27:29.523Z,27.81
2022-08-17T16:32:59.356Z,27.92
2022-08-17T16:38:30.113Z,27.92
2022-08-17T16:44:10.367Z,27.90
2022-08-17T16:49:45.193Z,27.88
2022-08-17T16:55:15.860Z,27.93
2022-08-17T17:00:45.304Z,27.70
2022-08-17T17:06:18.635Z,27.44
2022-08-17T17:11:52.224Z,27.28
2022-08-17T17:17:24.818Z,27.08
2022-08-17T17:23:00.492Z,27.03
2022-08-17T17:28:33.930Z,26.82
2022-08-17T17:34:05.959Z,26.45
2022-08-17T17:39:43.855Z,26.38
2022-08-17T17:45:18.257Z,26.41
2022-08-17T17:50:50.471Z,26.32
2022-08-17T17:56:44.100Z,26.26
2022-08-17T18:02:42.059Z,26.20
2022-08-17T18:08:16.494Z,25.99
2022-08-17T18:13:55.361Z,26.09
2022-08-17T18:19:27.065Z,26.07
2022-08-17T18:24:57.370Z,26.07
2022-08-17T18:30:28.910Z,26.10
2022-08-17T18:35:59.746Z,26.11
2022-08-17T18:41:35.936Z,26.09
2022-08-17T18:47:09.086Z,26.08
2022-08-17T18:52:39.022Z,25.98
2022-08-17T18:58:15.215Z,25.99
2022-08-17T19:03:44.696Z,25.91
2022-08-17T19:09:32.340Z,25.84
2022-08-17T19:15:01.796Z,25.68
2022-08-17T19:20:31.632Z,25.63
2022-08-17T19:26:05.809Z,25.33
2022-08-17T19:31:55.334Z,24.91
2022-08-17T19:37:32.424Z,24.72
2022-08-17T19:43:05.625Z,24.44
2022-08-17T19:48:40.827Z,24.57
2022-08-17T19:54:14.230Z,24.61
2022-08-17T19:59:49.527Z,24.59
2022-08-17T20:05:20.728Z,24.61
2022-08-17T20:10:54.707Z,24.62
2022-08-17T20:16:24.805Z,24.69
2022-08-17T20:21:55.041Z,24.78
2022-08-17T20:27:31.482Z,24.87
2022-08-17T20:33:03.412Z,24.90
2022-08-17T20:38:43.655Z,24.88
2022-08-17T20:44:12.337Z,24.80
2022-08-17T20:49:50.536Z,24.77
2022-08-17T20:55:51.638Z,24.75
2022-08-17T21:01:36.633Z,24.53
2022-08-17T21:07:25.644Z,24.24
2022-08-17T21:12:57.880Z,24.33
2022-08-17T21:18:31.254Z,24.03
2022-08-17T21:24:08.728Z,23.83
2022-08-17T21:29:52.855Z,23.79
2022-08-17T21:35:30.112Z,23.65
2022-08-17T21:40:59.649Z,23.45
2022-08-17T21:46:30.212Z,23.34
2022-08-17T21:51:58.620Z,23.22
2022-08-17T21:57:30.345Z,23.33
2022-08-17T22:03:00.849Z,23.45
2022-08-17T22:08:29.240Z,23.62
2022-08-17T22:14:05.343Z,23.38
2022-08-17T22:19:35.022Z,23.20
2022-08-17T22:25:05.593Z,23.11
2022-08-17T22:30:37.584Z,23.14
2022-08-17T22:36:10.291Z,23.29
2022-08-17T22:41:41.858Z,23.41
2022-08-17T22:47:29.376Z,23.49
2022-08-17T22:53:17.713Z,23.51
2022-08-17T22:59:09.487Z,23.52
2022-08-17T23:04:41.480Z,23.55
2022-08-17T23:10:10.399Z,23.50
2022-08-17T23:15:40.086Z,23.44
2022-08-17T23:21:09.815Z,23.43
2022-08-17T23:26:42.182Z,23.42
2022-08-17T23:32:12.329Z,23.23
2022-08-17T23:37:42.587Z,23.07
2022-08-17T23:43:24.604Z,23.12
2022-08-17T23:48:55.148Z,23.21
2022-08-17T23:54:28.286Z,23.14
2022-08-17T23:59:57.257Z,23.22
